Ibitiara, Brazil
Current Conditions -  °F | °C
As of 7:00 AM on Thursday 27 Nov 2014 (Local Time) from SBQV Reporting Station
Scattered Clouds Scattered Clouds  
Wind Chill: 70°   Ceiling: Unl
Heat Index: 70°   Visibility: 6mi
Dew Point: 64°   Wind: 12mph
Humidity: 83%   Direction: 30°NNE
Pressure: 30.09"   Gusts: NA
Location:  12.65°S, 42.22°W
Report Text: SBQV 271000Z 03010KT 9999 SCT011 SCT070 21/18 Q1019
Loading
Personal Weather Stations






























Interactive Weather Map New forecast layout! Learn more

10-Day Weather Forecast

Advertisements
Track Severe Weather on mobile